createdAt,value
2018-04-14T00:00:14.362Z,998.09
2018-04-14T00:01:14.356Z,998.08
2018-04-14T00:02:14.343Z,998.11
2018-04-14T00:03:14.333Z,998.11
2018-04-14T00:04:14.334Z,998.12
2018-04-14T00:05:14.317Z,998.13
2018-04-14T00:06:14.305Z,998.13
2018-04-14T00:07:14.296Z,998.15
2018-04-14T00:08:14.287Z,998.12
2018-04-14T00:09:14.278Z,998.18
2018-04-14T00:10:14.269Z,998.19
2018-04-14T00:11:14.314Z,998.21
2018-04-14T00:12:14.252Z,998.18
2018-04-14T00:13:14.240Z,998.23
2018-04-14T00:14:14.231Z,998.22
2018-04-14T00:15:14.223Z,998.26
2018-04-14T00:16:14.213Z,998.28
2018-04-14T00:17:14.205Z,998.26
2018-04-14T00:18:14.194Z,998.27
2018-04-14T00:19:14.187Z,998.28
2018-04-14T00:20:14.177Z,998.31
2018-04-14T00:21:14.167Z,998.35
2018-04-14T00:22:14.157Z,998.30
2018-04-14T00:23:14.148Z,998.34
2018-04-14T00:24:14.139Z,998.33
2018-04-14T00:25:14.128Z,998.33
2018-04-14T00:26:14.121Z,998.35
2018-04-14T00:27:14.111Z,998.35
2018-04-14T00:28:14.102Z,998.34
2018-04-14T00:29:14.094Z,998.37
2018-04-14T00:30:14.083Z,998.35
2018-04-14T00:31:14.074Z,998.35
2018-04-14T00:32:14.064Z,998.32
2018-04-14T00:33:14.054Z,998.33
2018-04-14T00:34:14.045Z,998.32
2018-04-14T00:35:14.040Z,998.33
2018-04-14T00:36:14.026Z,998.35
2018-04-14T00:37:14.018Z,998.35
2018-04-14T00:38:14.008Z,998.35
2018-04-14T00:39:14.000Z,998.32
2018-04-14T00:40:13.994Z,998.38
2018-04-14T00:41:13.979Z,998.34
2018-04-14T00:42:13.970Z,998.36
2018-04-14T00:43:13.961Z,998.35
2018-04-14T00:44:13.959Z,998.35
2018-04-14T00:45:13.944Z,998.33
2018-04-14T00:46:13.933Z,998.38
2018-04-14T00:47:13.924Z,998.37
2018-04-14T00:48:13.913Z,998.37
2018-04-14T00:49:13.903Z,998.39
2018-04-14T00:50:13.894Z,998.37
2018-04-14T00:51:13.885Z,998.37
2018-04-14T00:52:13.876Z,998.40
2018-04-14T00:53:13.866Z,998.38
2018-04-14T00:54:13.857Z,998.40
2018-04-14T00:55:13.848Z,998.41
2018-04-14T00:56:13.839Z,998.45
2018-04-14T00:57:13.829Z,998.45
2018-04-14T00:58:13.819Z,998.46
2018-04-14T00:59:13.808Z,998.46
2018-04-14T01:00:13.804Z,998.49
2018-04-14T01:01:13.789Z,998.48
2018-04-14T01:02:13.781Z,998.49
2018-04-14T01:03:13.771Z,998.47
2018-04-14T01:04:13.763Z,998.47
2018-04-14T01:05:13.753Z,998.54
2018-04-14T01:06:13.745Z,998.52
2018-04-14T01:07:13.732Z,998.56
2018-04-14T01:08:13.726Z,998.54
2018-04-14T01:09:13.714Z,998.55
2018-04-14T01:10:13.705Z,998.55
2018-04-14T01:11:13.696Z,998.55
2018-04-14T01:12:13.686Z,998.54
2018-04-14T01:13:13.676Z,998.59
2018-04-14T01:14:13.666Z,998.56
2018-04-14T01:15:13.659Z,998.60
2018-04-14T01:16:13.647Z,998.61
2018-04-14T01:17:13.637Z,998.63
2018-04-14T01:18:13.633Z,998.60
2018-04-14T01:19:13.619Z,998.60
2018-04-14T01:20:13.609Z,998.61
2018-04-14T01:21:13.602Z,998.59
2018-04-14T01:22:13.594Z,998.60
2018-04-14T01:23:13.580Z,998.61
2018-04-14T01:24:13.571Z,998.58
2018-04-14T01:25:13.561Z,998.60
2018-04-14T01:26:13.551Z,998.59
2018-04-14T01:27:13.542Z,998.61
2018-04-14T01:28:13.532Z,998.64
2018-04-14T01:29:13.523Z,998.61
2018-04-14T01:30:13.512Z,998.59
2018-04-14T01:31:13.503Z,998.59
2018-04-14T01:32:13.494Z,998.56
2018-04-14T01:33:13.483Z,998.55
2018-04-14T01:34:13.474Z,998.53
2018-04-14T01:35:13.467Z,998.55
2018-04-14T01:36:13.455Z,998.56
2018-04-14T01:37:13.444Z,998.57
2018-04-14T01:38:13.435Z,998.56
2018-04-14T01:39:13.427Z,998.58
2018-04-14T01:40:13.419Z,998.54
2018-04-14T01:41:13.412Z,998.56
2018-04-14T01:42:13.396Z,998.56
2018-04-14T01:43:13.386Z,998.63
2018-04-14T01:44:13.376Z,998.61
2018-04-14T01:45:13.366Z,998.64
2018-04-14T01:46:13.356Z,998.67
2018-04-14T01:47:13.346Z,998.66
2018-04-14T01:48:13.337Z,998.64
2018-04-14T01:49:13.328Z,998.63
2018-04-14T01:50:13.317Z,998.61
2018-04-14T01:51:13.307Z,998.62
2018-04-14T01:52:13.298Z,998.60
2018-04-14T01:53:13.286Z,998.62
2018-04-14T01:54:13.277Z,998.63
2018-04-14T01:55:13.267Z,998.65
2018-04-14T01:56:13.258Z,998.63
2018-04-14T01:57:13.250Z,998.62
2018-04-14T01:58:13.237Z,998.64
2018-04-14T01:59:13.228Z,998.63
2018-04-14T02:00:13.217Z,998.63
2018-04-14T02:01:13.207Z,998.63
2018-04-14T02:02:13.199Z,998.66
2018-04-14T02:03:13.189Z,998.64
2018-04-14T02:04:13.178Z,998.66
2018-04-14T02:05:13.167Z,998.61
2018-04-14T02:06:13.157Z,998.62
2018-04-14T02:07:13.157Z,998.66
2018-04-14T02:08:13.138Z,998.66
2018-04-14T02:09:13.127Z,998.65
2018-04-14T02:10:13.117Z,998.65
2018-04-14T02:11:13.108Z,998.63
2018-04-14T02:12:13.099Z,998.65
2018-04-14T02:13:13.088Z,998.67
2018-04-14T02:14:13.079Z,998.68
2018-04-14T02:15:13.068Z,998.69
2018-04-14T02:16:13.059Z,998.70
2018-04-14T02:17:13.048Z,998.69
2018-04-14T02:18:13.041Z,998.72
2018-04-14T02:19:13.028Z,998.72
2018-04-14T02:20:13.017Z,998.67
2018-04-14T02:21:13.007Z,998.67
2018-04-14T02:22:13.001Z,998.66
2018-04-14T02:23:12.987Z,998.66
2018-04-14T02:24:12.978Z,998.70
2018-04-14T02:25:12.966Z,998.70
2018-04-14T02:26:12.956Z,998.72
2018-04-14T02:27:12.947Z,998.71
2018-04-14T02:28:12.938Z,998.71
2018-04-14T02:29:12.927Z,998.76
2018-04-14T02:30:12.916Z,998.72
2018-04-14T02:31:12.906Z,998.71
2018-04-14T02:32:12.899Z,998.73
2018-04-14T02:33:12.885Z,998.71
2018-04-14T02:34:12.876Z,998.74
2018-04-14T02:35:12.867Z,998.73
2018-04-14T02:36:12.857Z,998.72
2018-04-14T02:37:12.853Z,998.74
2018-04-14T02:38:12.835Z,998.74
2018-04-14T02:39:12.825Z,998.76
2018-04-14T02:40:12.816Z,998.71
2018-04-14T02:41:12.804Z,998.70
2018-04-14T02:42:12.795Z,998.77
2018-04-14T02:43:12.786Z,998.75
2018-04-14T02:44:12.774Z,998.74
2018-04-14T02:45:12.763Z,998.77
2018-04-14T02:46:12.754Z,998.80
2018-04-14T02:47:12.751Z,998.80
2018-04-14T02:48:12.737Z,998.82
2018-04-14T02:49:12.725Z,998.81
2018-04-14T02:50:12.713Z,998.85
2018-04-14T02:51:12.704Z,998.91
2018-04-14T02:52:12.739Z,998.90
2018-04-14T02:53:12.684Z,998.88
2018-04-14T02:54:12.671Z,998.92
2018-04-14T02:55:12.663Z,998.95
2018-04-14T02:56:12.653Z,998.99
2018-04-14T02:57:12.649Z,999.02
2018-04-14T02:58:12.631Z,999.02
2018-04-14T02:59:12.621Z,999.01
2018-04-14T03:00:12.611Z,999.05
2018-04-14T03:01:12.600Z,999.09
2018-04-14T03:02:12.590Z,999.09
2018-04-14T03:03:12.581Z,999.04
2018-04-14T03:04:12.571Z,999.07
2018-04-14T03:05:12.558Z,999.03
2018-04-14T03:06:12.549Z,999.02
2018-04-14T03:07:12.540Z,998.97
2018-04-14T03:08:12.528Z,998.96
2018-04-14T03:09:12.518Z,998.97
2018-04-14T03:10:12.536Z,999.01
2018-04-14T03:11:12.497Z,999.02
2018-04-14T03:12:12.487Z,999.03
2018-04-14T03:13:12.479Z,999.05
2018-04-14T03:14:12.465Z,999.05
2018-04-14T03:15:12.456Z,999.09
2018-04-14T03:16:12.446Z,999.12
2018-04-14T03:17:12.435Z,999.16
2018-04-14T03:18:12.429Z,999.18
2018-04-14T03:19:12.415Z,999.16
2018-04-14T03:20:12.412Z,999.18
2018-04-14T03:21:12.393Z,999.16
2018-04-14T03:22:12.386Z,999.21
2018-04-14T03:23:12.375Z,999.13
2018-04-14T03:24:12.365Z,999.19
2018-04-14T03:25:12.353Z,999.19
2018-04-14T03:26:12.344Z,999.23
2018-04-14T03:27:12.332Z,999.24
2018-04-14T03:28:12.322Z,999.21
2018-04-14T03:29:12.310Z,999.28
2018-04-14T03:30:12.301Z,999.29
2018-04-14T03:31:12.302Z,999.31
2018-04-14T03:32:12.281Z,999.35
2018-04-14T03:33:12.272Z,999.29
2018-04-14T03:34:12.260Z,999.35
2018-04-14T03:35:12.252Z,999.33
2018-04-14T03:36:12.239Z,999.37
2018-04-14T03:37:12.229Z,999.41
2018-04-14T03:38:12.217Z,999.41
2018-04-14T03:39:12.207Z,999.35
2018-04-14T03:40:12.198Z,999.37
2018-04-14T03:41:12.187Z,999.41
2018-04-14T03:42:12.176Z,999.45
2018-04-14T03:43:12.165Z,999.47
2018-04-14T03:44:12.155Z,999.48
2018-04-14T03:45:12.144Z,999.51
2018-04-14T03:46:12.140Z,999.50
2018-04-14T03:47:12.128Z,999.49
2018-04-14T03:48:12.113Z,999.51
2018-04-14T03:49:12.106Z,999.49
2018-04-14T03:50:12.094Z,999.50
2018-04-14T03:51:12.083Z,999.50
2018-04-14T03:52:12.076Z,999.53
2018-04-14T03:53:12.061Z,999.51
2018-04-14T03:54:12.052Z,999.53
2018-04-14T03:55:12.042Z,999.54
2018-04-14T03:56:12.031Z,999.54
2018-04-14T03:57:12.020Z,999.59
2018-04-14T03:58:12.012Z,999.57
2018-04-14T03:59:12.004Z,999.57
2018-04-14T04:00:11.990Z,999.57
2018-04-14T04:01:11.979Z,999.57
2018-04-14T04:02:11.972Z,999.57
2018-04-14T04:03:11.959Z,999.56
2018-04-14T04:04:11.950Z,999.56
2018-04-14T04:05:11.939Z,999.56
2018-04-14T04:06:11.928Z,999.62
2018-04-14T04:07:11.921Z,999.62
2018-04-14T04:08:11.909Z,999.63
2018-04-14T04:09:11.898Z,999.66
2018-04-14T04:10:11.892Z,999.69
2018-04-14T04:11:11.878Z,999.74
2018-04-14T04:12:11.870Z,999.73
2018-04-14T04:13:11.859Z,999.71
2018-04-14T04:14:11.849Z,999.72
2018-04-14T04:15:11.838Z,999.71
2018-04-14T04:16:11.829Z,999.71
2018-04-14T04:17:11.822Z,999.71
2018-04-14T04:18:11.808Z,999.73
2018-04-14T04:19:11.798Z,999.74
2018-04-14T04:20:11.788Z,999.73
2018-04-14T04:21:11.783Z,999.80
2018-04-14T04:22:11.768Z,999.77
2018-04-14T04:23:11.758Z,999.81
2018-04-14T04:24:11.749Z,999.81
2018-04-14T04:25:11.740Z,999.78
2018-04-14T04:26:11.729Z,999.79
2018-04-14T04:27:11.719Z,999.80
2018-04-14T04:28:11.740Z,999.79
2018-04-14T04:29:11.700Z,999.84
2018-04-14T04:30:11.691Z,999.84
2018-04-14T04:31:11.685Z,999.84
2018-04-14T04:32:11.672Z,999.84
2018-04-14T04:33:11.660Z,999.81
2018-04-14T04:34:11.651Z,999.83
2018-04-14T04:35:11.643Z,999.87
2018-04-14T04:36:11.631Z,999.90
2018-04-14T04:37:11.622Z,999.91
2018-04-14T04:38:11.612Z,999.89
2018-04-14T04:39:11.603Z,999.96
2018-04-14T04:40:11.594Z,999.97
2018-04-14T04:41:11.583Z,999.95
2018-04-14T04:42:11.574Z,999.98
2018-04-14T04:43:11.566Z,1000.01
2018-04-14T04:44:11.555Z,1000.07
2018-04-14T04:45:11.545Z,1000.08
2018-04-14T04:46:11.542Z,1000.09
2018-04-14T04:47:11.526Z,1000.11
2018-04-14T04:48:11.516Z,1000.10
2018-04-14T04:49:11.512Z,1000.12
2018-04-14T04:50:11.496Z,1000.13
2018-04-14T04:51:11.487Z,1000.19
2018-04-14T04:52:11.481Z,1000.21
2018-04-14T04:53:11.468Z,1000.17
2018-04-14T04:54:11.459Z,1000.20
2018-04-14T04:55:11.456Z,1000.22
2018-04-14T04:56:11.440Z,1000.20
2018-04-14T04:57:11.429Z,1000.22
2018-04-14T04:58:11.422Z,1000.22
2018-04-14T04:59:11.411Z,1000.28
2018-04-14T05:00:11.402Z,1000.32
2018-04-14T05:01:11.391Z,1000.29
2018-04-14T05:02:11.382Z,1000.30
2018-04-14T05:03:11.372Z,1000.27
2018-04-14T05:04:11.363Z,1000.28
2018-04-14T05:05:11.356Z,1000.29
2018-04-14T05:06:11.343Z,1000.30
2018-04-14T05:07:11.334Z,1000.29
2018-04-14T05:08:11.325Z,1000.34
2018-04-14T05:09:11.316Z,1000.36
2018-04-14T05:10:11.305Z,1000.33
2018-04-14T05:11:11.298Z,1000.39
2018-04-14T05:12:11.287Z,1000.37
2018-04-14T05:13:11.277Z,1000.42
2018-04-14T05:14:11.273Z,1000.40
2018-04-14T05:15:11.258Z,1000.41
2018-04-14T05:16:11.249Z,1000.46
2018-04-14T05:17:11.239Z,1000.50
2018-04-14T05:18:11.231Z,1000.47
2018-04-14T05:19:11.221Z,1000.45
2018-04-14T05:20:11.212Z,1000.49
2018-04-14T05:21:11.202Z,1000.45
2018-04-14T05:22:11.192Z,1000.45
2018-04-14T05:23:11.183Z,1000.46
2018-04-14T05:24:11.193Z,1000.42
2018-04-14T05:25:11.164Z,1000.45
2018-04-14T05:26:11.156Z,1000.43
2018-04-14T05:27:11.148Z,1000.47
2018-04-14T05:28:11.137Z,1000.48
2018-04-14T05:29:11.127Z,1000.50
2018-04-14T05:30:11.119Z,1000.54
2018-04-14T05:31:11.109Z,1000.51
2018-04-14T05:32:11.101Z,1000.53
2018-04-14T05:33:11.091Z,1000.53
2018-04-14T05:34:11.082Z,1000.55
2018-04-14T05:35:11.081Z,1000.56
2018-04-14T05:36:11.063Z,1000.62
2018-04-14T05:37:11.057Z,1000.58
2018-04-14T05:38:11.044Z,1000.60
2018-04-14T05:39:11.035Z,1000.62
2018-04-14T05:40:11.031Z,1000.62
2018-04-14T05:41:11.018Z,1000.63
2018-04-14T05:42:11.009Z,1000.63
2018-04-14T05:43:10.999Z,1000.63
2018-04-14T05:44:10.990Z,1000.64
2018-04-14T05:45:10.981Z,1000.66
2018-04-14T05:46:10.971Z,1000.59
2018-04-14T05:47:10.962Z,1000.62
2018-04-14T05:48:10.954Z,1000.65
2018-04-14T05:49:10.947Z,1000.68
2018-04-14T05:50:10.936Z,1000.66
2018-04-14T05:51:10.930Z,1000.66
2018-04-14T05:52:10.918Z,1000.65
2018-04-14T05:53:10.910Z,1000.69
2018-04-14T05:54:10.900Z,1000.70
2018-04-14T05:55:10.891Z,1000.72
2018-04-14T05:56:10.884Z,1000.72
2018-04-14T05:57:10.874Z,1000.76
2018-04-14T05:58:10.864Z,1000.81
2018-04-14T05:59:10.856Z,1000.85
2018-04-14T06:00:10.890Z,1000.87
2018-04-14T06:01:10.837Z,1000.86
2018-04-14T06:02:10.828Z,1000.90
2018-04-14T06:03:10.820Z,1000.92
2018-04-14T06:04:10.811Z,1000.88
2018-04-14T06:05:10.802Z,1000.88
2018-04-14T06:06:10.792Z,1000.92
2018-04-14T06:07:10.785Z,1000.92
2018-04-14T06:08:10.773Z,1000.95
2018-04-14T06:09:10.786Z,1000.91
2018-04-14T06:10:10.756Z,1000.95
2018-04-14T06:11:10.747Z,1000.97
2018-04-14T06:12:10.738Z,1001.00
2018-04-14T06:13:10.732Z,1001.01
2018-04-14T06:14:10.720Z,1001.00
2018-04-14T06:15:10.711Z,1001.04
2018-04-14T06:16:10.702Z,1001.00
2018-04-14T06:17:10.693Z,1000.96
2018-04-14T06:18:10.684Z,1000.96
2018-04-14T06:19:10.677Z,1000.98
2018-04-14T06:20:10.669Z,1001.00
2018-04-14T06:21:10.658Z,1001.02
2018-04-14T06:22:10.781Z,1001.00
2018-04-14T06:23:10.642Z,1001.04
2018-04-14T06:24:10.633Z,1001.07
2018-04-14T06:25:10.624Z,1001.08
2018-04-14T06:26:10.616Z,1001.08
2018-04-14T06:27:10.608Z,1001.07
2018-04-14T06:28:10.660Z,1001.05
2018-04-14T06:29:10.591Z,1001.08
2018-04-14T06:30:10.582Z,1001.07
2018-04-14T06:31:10.575Z,1001.06
2018-04-14T06:32:10.567Z,1001.07
2018-04-14T06:33:10.561Z,1001.03
2018-04-14T06:34:10.550Z,1001.09
2018-04-14T06:35:10.543Z,1001.13
2018-04-14T06:36:10.536Z,1001.11
2018-04-14T06:37:10.527Z,1001.14
2018-04-14T06:38:10.518Z,1001.19
2018-04-14T06:39:10.510Z,1001.23
2018-04-14T06:40:10.503Z,1001.22
2018-04-14T06:41:10.494Z,1001.25
2018-04-14T06:42:10.488Z,1001.28
2018-04-14T06:43:10.481Z,1001.30
2018-04-14T06:44:10.496Z,1001.27
2018-04-14T06:45:10.463Z,1001.33
2018-04-14T06:46:10.457Z,1001.31
2018-04-14T06:47:10.452Z,1001.32
2018-04-14T06:48:10.442Z,1001.35
2018-04-14T06:49:10.434Z,1001.36
2018-04-14T06:50:10.445Z,1001.40
2018-04-14T06:51:10.420Z,1001.38
2018-04-14T06:52:10.414Z,1001.38
2018-04-14T06:53:10.405Z,1001.42
2018-04-14T06:54:10.398Z,1001.39
2018-04-14T06:55:10.392Z,1001.38
2018-04-14T06:56:10.386Z,1001.38
2018-04-14T06:57:10.380Z,1001.40
2018-04-14T06:58:10.371Z,1001.38
2018-04-14T06:59:10.365Z,1001.45
2018-04-14T07:00:10.357Z,1001.43
2018-04-14T07:01:10.351Z,1001.45
2018-04-14T07:02:10.343Z,1001.45
2018-04-14T07:03:10.341Z,1001.44
2018-04-14T07:04:10.330Z,1001.44
2018-04-14T07:05:10.324Z,1001.45
2018-04-14T07:06:10.316Z,1001.47
2018-04-14T07:07:10.310Z,1001.52
2018-04-14T07:08:10.304Z,1001.56
2018-04-14T07:09:10.297Z,1001.55
2018-04-14T07:10:10.291Z,1001.57
2018-04-14T07:11:10.288Z,1001.57
2018-04-14T07:12:10.280Z,1001.59
2018-04-14T07:13:10.273Z,1001.63
2018-04-14T07:14:10.267Z,1001.58
2018-04-14T07:15:10.264Z,1001.61
2018-04-14T07:16:10.261Z,1001.65
2018-04-14T07:17:10.255Z,1001.67
2018-04-14T07:18:10.247Z,1001.63
2018-04-14T07:19:10.243Z,1001.65
2018-04-14T07:20:10.241Z,1001.63
2018-04-14T07:21:10.232Z,1001.66
2018-04-14T07:22:10.227Z,1001.66
2018-04-14T07:23:10.226Z,1001.67
2018-04-14T07:24:10.219Z,1001.66
2018-04-14T07:25:10.216Z,1001.69
2018-04-14T07:26:10.211Z,1001.69
2018-04-14T07:27:10.207Z,1001.71
2018-04-14T07:28:10.205Z,1001.76
2018-04-14T07:29:10.203Z,1001.74
2018-04-14T07:30:10.197Z,1001.78
2018-04-14T07:31:10.195Z,1001.80
2018-04-14T07:32:10.191Z,1001.82
2018-04-14T07:33:10.188Z,1001.86
2018-04-14T07:34:10.187Z,1001.84
2018-04-14T07:35:10.185Z,1001.84
2018-04-14T07:36:10.183Z,1001.87
2018-04-14T07:37:10.180Z,1001.86
2018-04-14T07:38:10.179Z,1001.85
2018-04-14T07:39:10.177Z,1001.87
2018-04-14T07:40:10.179Z,1001.83
2018-04-14T07:41:10.174Z,1001.82
2018-04-14T07:42:10.174Z,1001.80
2018-04-14T07:43:10.175Z,1001.83
2018-04-14T07:44:10.174Z,1001.83
2018-04-14T07:45:10.175Z,1001.85
2018-04-14T07:46:10.176Z,1001.84
2018-04-14T07:47:10.173Z,1001.84
2018-04-14T07:48:10.174Z,1001.82
2018-04-14T07:49:10.173Z,1001.85
2018-04-14T07:50:10.177Z,1001.87
2018-04-14T07:51:10.173Z,1001.88
2018-04-14T07:52:10.178Z,1001.90
2018-04-14T07:53:10.175Z,1001.86
2018-04-14T07:54:10.175Z,1001.91
2018-04-14T07:55:10.177Z,1001.94
2018-04-14T07:56:10.177Z,1002.00
2018-04-14T07:57:10.182Z,1001.99
2018-04-14T07:58:10.180Z,1002.00
2018-04-14T07:59:10.182Z,1002.02
2018-04-14T08:00:10.183Z,1002.06
2018-04-14T08:01:10.188Z,1002.04
2018-04-14T08:02:10.187Z,1002.09
2018-04-14T08:03:10.188Z,1002.09
2018-04-14T08:04:10.195Z,1002.11
2018-04-14T08:05:10.192Z,1002.11
2018-04-14T08:06:10.239Z,1002.12
2018-04-14T08:07:10.196Z,1002.13
2018-04-14T08:08:10.198Z,1002.13
2018-04-14T08:09:10.199Z,1002.14
2018-04-14T08:10:10.201Z,1002.13
2018-04-14T08:11:10.203Z,1002.16
2018-04-14T08:12:10.205Z,1002.18
2018-04-14T08:13:10.206Z,1002.20
2018-04-14T08:14:10.209Z,1002.17
2018-04-14T08:15:10.213Z,1002.20
2018-04-14T08:16:10.220Z,1002.20
2018-04-14T08:17:10.216Z,1002.25
2018-04-14T08:18:10.219Z,1002.23
2018-04-14T08:19:10.221Z,1002.24
2018-04-14T08:20:10.223Z,1002.25
2018-04-14T08:21:10.225Z,1002.21
2018-04-14T08:22:10.227Z,1002.24
2018-04-14T08:23:10.228Z,1002.27
2018-04-14T08:24:10.230Z,1002.30
2018-04-14T08:25:10.232Z,1002.27
2018-04-14T08:26:10.234Z,1002.26
2018-04-14T08:27:10.237Z,1002.25
2018-04-14T08:28:10.238Z,1002.26
2018-04-14T08:29:10.239Z,1002.27
2018-04-14T08:30:10.244Z,1002.25
2018-04-14T08:31:10.243Z,1002.26
2018-04-14T08:32:10.244Z,1002.28
2018-04-14T08:33:10.254Z,1002.25
2018-04-14T08:34:10.249Z,1002.21
2018-04-14T08:35:10.250Z,1002.27
2018-04-14T08:36:10.254Z,1002.26
2018-04-14T08:37:10.256Z,1002.22
2018-04-14T08:38:10.259Z,1002.24
2018-04-14T08:39:10.262Z,1002.27
2018-04-14T08:40:10.269Z,1002.25
2018-04-14T08:41:10.272Z,1002.29
2018-04-14T08:42:10.277Z,1002.33
2018-04-14T08:43:10.283Z,1002.26
2018-04-14T08:44:10.288Z,1002.28
2018-04-14T08:45:10.294Z,1002.28
2018-04-14T08:46:10.301Z,1002.31
2018-04-14T08:47:10.307Z,1002.31
2018-04-14T08:48:10.319Z,1002.29
2018-04-14T08:49:10.318Z,1002.27
2018-04-14T08:50:10.328Z,1002.27
2018-04-14T08:51:10.333Z,1002.26
2018-04-14T08:52:10.341Z,1002.27
2018-04-14T08:53:10.345Z,1002.28
2018-04-14T08:54:10.351Z,1002.29
2018-04-14T08:55:10.359Z,1002.37
2018-04-14T08:56:10.364Z,1002.34
2018-04-14T08:57:10.370Z,1002.33
2018-04-14T08:58:10.377Z,1002.34
2018-04-14T08:59:10.385Z,1002.34
2018-04-14T09:00:10.391Z,1002.32
2018-04-14T09:01:10.398Z,1002.30
2018-04-14T09:02:10.408Z,1002.28
2018-04-14T09:03:10.411Z,1002.32
2018-04-14T09:04:10.418Z,1002.29
2018-04-14T09:05:10.426Z,1002.29
2018-04-14T09:06:10.433Z,1002.34
2018-04-14T09:07:10.439Z,1002.35
2018-04-14T09:08:10.446Z,1002.35
2018-04-14T09:09:10.504Z,1002.32
2018-04-14T09:10:10.461Z,1002.34
2018-04-14T09:11:10.468Z,1002.35
2018-04-14T09:12:10.477Z,1002.35
2018-04-14T09:13:10.484Z,1002.32
2018-04-14T09:14:10.490Z,1002.34
2018-04-14T09:15:10.497Z,1002.35
2018-04-14T09:16:10.518Z,1002.40
2018-04-14T09:17:10.508Z,1002.44
2018-04-14T09:18:10.514Z,1002.41
2018-04-14T09:19:10.520Z,1002.41
2018-04-14T09:20:10.527Z,1002.50
2018-04-14T09:21:10.530Z,1002.42
2018-04-14T09:22:10.536Z,1002.46
2018-04-14T09:23:10.541Z,1002.42
2018-04-14T09:24:10.548Z,1002.45
2018-04-14T09:25:10.548Z,1002.43
2018-04-14T09:26:10.552Z,1002.45
2018-04-14T09:27:10.554Z,1002.48
2018-04-14T09:28:10.557Z,1002.46
2018-04-14T09:29:10.558Z,1002.48
2018-04-14T09:30:10.561Z,1002.48
2018-04-14T09:31:10.565Z,1002.47
2018-04-14T09:32:10.566Z,1002.46
2018-04-14T09:33:10.568Z,1002.46
2018-04-14T09:34:10.574Z,1002.46
2018-04-14T09:35:10.573Z,1002.46
2018-04-14T09:36:10.575Z,1002.47
2018-04-14T09:37:10.577Z,1002.44
2018-04-14T09:38:10.579Z,1002.44
2018-04-14T09:39:10.581Z,1002.44
2018-04-14T09:40:10.585Z,1002.43
2018-04-14T09:41:10.594Z,1002.46
2018-04-14T09:42:10.589Z,1002.41
2018-04-14T09:43:10.590Z,1002.40
2018-04-14T09:44:10.593Z,1002.45
2018-04-14T09:45:10.598Z,1002.41
2018-04-14T09:46:10.601Z,1002.40
2018-04-14T09:47:10.607Z,1002.41
2018-04-14T09:48:10.614Z,1002.43
2018-04-14T09:49:10.619Z,1002.43
2018-04-14T09:50:10.627Z,1002.48
2018-04-14T09:51:10.639Z,1002.46
2018-04-14T09:52:10.641Z,1002.44
2018-04-14T09:53:10.652Z,1002.45
2018-04-14T09:54:10.655Z,1002.43
2018-04-14T09:55:10.665Z,1002.47
2018-04-14T09:56:10.671Z,1002.53
2018-04-14T09:57:10.677Z,1002.48
2018-04-14T09:58:10.684Z,1002.57
2018-04-14T09:59:10.692Z,1002.50
2018-04-14T10:00:10.702Z,1002.50
2018-04-14T10:01:10.710Z,1002.48
2018-04-14T10:02:10.719Z,1002.47
2018-04-14T10:03:10.729Z,1002.49
2018-04-14T10:04:10.740Z,1002.43
2018-04-14T10:05:10.751Z,1002.42
2018-04-14T10:06:10.761Z,1002.45
2018-04-14T10:07:10.771Z,1002.44
2018-04-14T10:08:10.781Z,1002.43
2018-04-14T10:09:10.789Z,1002.42
2018-04-14T10:10:10.798Z,1002.48
2018-04-14T10:11:10.809Z,1002.45
2018-04-14T10:12:10.817Z,1002.41
2018-04-14T10:13:10.828Z,1002.41
2018-04-14T10:14:10.836Z,1002.42
2018-04-14T10:15:10.840Z,1002.37
2018-04-14T10:16:10.888Z,1002.35
2018-04-14T10:17:10.853Z,1002.37
2018-04-14T10:18:10.860Z,1002.38
2018-04-14T10:19:10.867Z,1002.32
2018-04-14T10:20:10.874Z,1002.29
2018-04-14T10:21:10.879Z,1002.29
2018-04-14T10:22:10.885Z,1002.27
2018-04-14T10:23:10.894Z,1002.24
2018-04-14T10:24:10.898Z,1002.28
2018-04-14T10:25:10.902Z,1002.28
2018-04-14T10:26:10.944Z,1002.21
2018-04-14T10:27:10.915Z,1002.25
2018-04-14T10:28:10.921Z,1002.26
2018-04-14T10:29:10.932Z,1002.25
2018-04-14T10:30:10.933Z,1002.22
2018-04-14T10:31:10.941Z,1002.19
2018-04-14T10:32:10.947Z,1002.19
2018-04-14T10:33:10.954Z,1002.23
2018-04-14T10:34:10.959Z,1002.22
2018-04-14T10:35:10.965Z,1002.17
2018-04-14T10:36:10.969Z,1002.16
2018-04-14T10:37:10.974Z,1002.16
2018-04-14T10:38:10.987Z,1002.22
2018-04-14T10:39:10.983Z,1002.24
2018-04-14T10:40:10.988Z,1002.25
2018-04-14T10:41:10.999Z,1002.20
2018-04-14T10:42:10.995Z,1002.19
2018-04-14T10:43:10.998Z,1002.22
2018-04-14T10:44:11.002Z,1002.29
2018-04-14T10:45:11.005Z,1002.30
2018-04-14T10:46:11.010Z,1002.29
2018-04-14T10:47:11.016Z,1002.29
2018-04-14T10:48:11.024Z,1002.28
2018-04-14T10:49:11.032Z,1002.30
2018-04-14T10:50:11.097Z,1002.31
2018-04-14T10:51:11.040Z,1002.34
2018-04-14T10:52:11.049Z,1002.31
2018-04-14T10:53:11.057Z,1002.25
2018-04-14T10:54:11.065Z,1002.24
2018-04-14T10:55:11.073Z,1002.24
2018-04-14T10:56:11.082Z,1002.24
2018-04-14T10:57:11.089Z,1002.24
2018-04-14T10:58:11.099Z,1002.27
2018-04-14T10:59:11.105Z,1002.25
2018-04-14T11:00:11.112Z,1002.26
2018-04-14T11:01:11.120Z,1002.30
2018-04-14T11:02:11.129Z,1002.23
2018-04-14T11:03:11.137Z,1002.27
2018-04-14T11:04:11.145Z,1002.24
2018-04-14T11:05:11.152Z,1002.22
2018-04-14T11:06:11.159Z,1002.22
2018-04-14T11:07:11.167Z,1002.23
2018-04-14T11:08:11.176Z,1002.18
2018-04-14T11:09:11.179Z,1002.18
2018-04-14T11:10:11.185Z,1002.19
2018-04-14T11:11:11.192Z,1002.20
2018-04-14T11:12:11.200Z,1002.18
2018-04-14T11:13:11.204Z,1002.17
2018-04-14T11:14:11.212Z,1002.21
2018-04-14T11:15:11.219Z,1002.15
2018-04-14T11:16:11.225Z,1002.12
2018-04-14T11:17:11.230Z,1002.11
2018-04-14T11:18:11.241Z,1002.14
2018-04-14T11:19:11.245Z,1002.15
2018-04-14T11:20:11.257Z,1002.17
2018-04-14T11:21:11.257Z,1002.14
2018-04-14T11:22:11.264Z,1002.14
2018-04-14T11:23:11.270Z,1002.14
2018-04-14T11:24:11.278Z,1002.14
2018-04-14T11:25:11.282Z,1002.20
2018-04-14T11:26:11.288Z,1002.21
2018-04-14T11:27:11.295Z,1002.23
2018-04-14T11:28:11.302Z,1002.25
2018-04-14T11:29:11.310Z,1002.19
2018-04-14T11:30:11.317Z,1002.18
2018-04-14T11:31:11.335Z,1002.14
2018-04-14T11:32:11.335Z,1002.14
2018-04-14T11:33:11.343Z,1002.19
2018-04-14T11:34:11.353Z,1002.22
2018-04-14T11:35:11.362Z,1002.18
2018-04-14T11:36:11.374Z,1002.19
2018-04-14T11:37:11.381Z,1002.19
2018-04-14T11:38:11.391Z,1002.20
2018-04-14T11:39:11.401Z,1002.19
2018-04-14T11:40:11.413Z,1002.20
2018-04-14T11:41:11.422Z,1002.19
2018-04-14T11:42:11.432Z,1002.20
2018-04-14T11:43:11.443Z,1002.20
2018-04-14T11:44:11.456Z,1002.21
2018-04-14T11:45:11.463Z,1002.17
2018-04-14T11:46:11.474Z,1002.17
2018-04-14T11:47:11.483Z,1002.16
2018-04-14T11:48:11.494Z,1002.15
2018-04-14T11:49:11.501Z,1002.14
2018-04-14T11:50:11.516Z,1002.18
2018-04-14T11:51:11.519Z,1002.20
2018-04-14T11:52:11.527Z,1002.16
2018-04-14T11:53:11.534Z,1002.12
2018-04-14T11:54:11.543Z,1002.12
2018-04-14T11:55:11.552Z,1002.08
2018-04-14T11:56:11.564Z,1002.16
2018-04-14T11:57:11.569Z,1002.11
2018-04-14T11:58:11.578Z,1002.14
2018-04-14T11:59:11.586Z,1002.22
2018-04-14T12:00:11.598Z,1002.16
2018-04-14T12:01:11.600Z,1002.19
2018-04-14T12:02:11.609Z,1002.18
2018-04-14T12:03:11.621Z,1002.20
2018-04-14T12:04:11.629Z,1002.17
2018-04-14T12:05:11.632Z,1002.14
2018-04-14T12:06:11.641Z,1002.20
2018-04-14T12:07:11.647Z,1002.20
2018-04-14T12:08:11.654Z,1002.16
2018-04-14T12:09:11.661Z,1002.16
2018-04-14T12:10:11.672Z,1002.20
2018-04-14T12:11:11.678Z,1002.18
2018-04-14T12:12:11.685Z,1002.18
2018-04-14T12:13:11.691Z,1002.16
2018-04-14T12:14:11.702Z,1002.14